Terminal Aerodrome Forecast
Issued by NWS

Home | Current Version | Previous Version | Text Only | Print | Product List | Glossary On
Versions: 1 2 3 4 5 6 7 8 9 10 11 12 13 14 15 16 17 18 19
000
FTUS43 KDLH 191100
TAFHYR
TAF
KHYR 191134Z 1912/2012 13009G15KT P6SM -RA OVC080
     FM191400 12012KT 3SM -RA BR OVC015
     FM192000 22008KT P6SM VCSH BKN025
     FM200100 32006KT P6SM BKN015=

USA.gov is the U.S. government's official web portal to all federal, state and local government web resources and services.